sensor_id;sensor_type;location;lat;lon;timestamp;pressure;altitude;pressure_sealevel;temperature;humidity
11643;BME280;5877;50.930;6.918;2023-03-23T00:01:44;99929.28;;;13.02;63.77
11643;BME280;5877;50.930;6.918;2023-03-23T00:06:34;99930.13;;;13.08;64.14
11643;BME280;5877;50.930;6.918;2023-03-23T00:11:29;99892.59;;;12.95;63.89
11643;BME280;5877;50.930;6.918;2023-03-23T00:16:21;99837.28;;;12.52;64.56
11643;BME280;5877;50.930;6.918;2023-03-23T00:21:20;99770.75;;;12.18;64.47
11643;BME280;5877;50.930;6.918;2023-03-23T00:26:12;99948.88;;;13.28;64.23
11643;BME280;5877;50.930;6.918;2023-03-23T00:31:05;99850.94;;;12.71;64.33
11643;BME280;5877;50.930;6.918;2023-03-23T00:35:59;99807.56;;;12.34;64.28
11643;BME280;5877;50.930;6.918;2023-03-23T00:40:50;99813.28;;;12.48;64.27
11643;BME280;5877;50.930;6.918;2023-03-23T00:45:41;99840.91;;;12.67;64.09
11643;BME280;5877;50.930;6.918;2023-03-23T00:50:31;99824.47;;;12.60;63.84
11643;BME280;5877;50.930;6.918;2023-03-23T00:55:23;99756.56;;;12.19;64.32
11643;BME280;5877;50.930;6.918;2023-03-23T01:00:14;99692.41;;;11.64;65.04
11643;BME280;5877;50.930;6.918;2023-03-23T01:05:06;99690.00;;;11.63;65.13
11643;BME280;5877;50.930;6.918;2023-03-23T01:09:57;99488.53;;;10.36;64.96
11643;BME280;5877;50.930;6.918;2023-03-23T01:14:48;99910.31;;;13.00;65.06
11643;BME280;5877;50.930;6.918;2023-03-23T01:19:38;99474.53;;;10.30;64.55
11643;BME280;5877;50.930;6.918;2023-03-23T01:24:30;99880.72;;;12.93;64.56
11643;BME280;5877;50.930;6.918;2023-03-23T01:29:22;99738.09;;;12.14;64.88
11643;BME280;5877;50.930;6.918;2023-03-23T01:34:13;99786.75;;;12.33;64.29
11643;BME280;5877;50.930;6.918;2023-03-23T01:39:05;99864.78;;;12.83;64.44
11643;BME280;5877;50.930;6.918;2023-03-23T01:49:17;99745.53;;;12.00;68.49
11643;BME280;5877;50.930;6.918;2023-03-23T01:54:13;99891.38;;;12.81;69.53
11643;BME280;5877;50.930;6.918;2023-03-23T01:59:04;99667.25;;;11.35;70.19
11643;BME280;5877;50.930;6.918;2023-03-23T02:03:56;99810.38;;;12.11;71.33
11643;BME280;5877;50.930;6.918;2023-03-23T02:08:49;99872.53;;;12.34;71.78
11643;BME280;5877;50.930;6.918;2023-03-23T02:13:42;99907.22;;;12.48;71.57
11643;BME280;5877;50.930;6.918;2023-03-23T02:24:01;99860.75;;;12.37;71.15
11643;BME280;5877;50.930;6.918;2023-03-23T02:39:19;99657.28;;;11.03;72.78
11643;BME280;5877;50.930;6.918;2023-03-23T02:44:13;99744.41;;;11.62;72.53
11643;BME280;5877;50.930;6.918;2023-03-23T02:49:07;99830.31;;;12.07;72.00
11643;BME280;5877;50.930;6.918;2023-03-23T02:53:59;99694.38;;;11.07;71.29
11643;BME280;5877;50.930;6.918;2023-03-23T02:58:49;99549.13;;;10.23;71.12
11643;BME280;5877;50.930;6.918;2023-03-23T03:03:40;99742.72;;;11.39;71.47
11643;BME280;5877;50.930;6.918;2023-03-23T03:13:38;99828.72;;;12.06;70.89
11643;BME280;5877;50.930;6.918;2023-03-23T03:23:32;99727.69;;;11.52;69.95
11643;BME280;5877;50.930;6.918;2023-03-23T03:28:26;99850.72;;;12.17;70.12
11643;BME280;5877;50.930;6.918;2023-03-23T03:33:18;99625.94;;;10.80;69.69
11643;BME280;5877;50.930;6.918;2023-03-23T03:38:12;99652.13;;;10.92;69.61
11643;BME280;5877;50.930;6.918;2023-03-23T03:43:04;99506.69;;;9.97;69.78
11643;BME280;5877;50.930;6.918;2023-03-23T03:47:56;99609.22;;;10.69;69.43
11643;BME280;5877;50.930;6.918;2023-03-23T03:52:47;99852.47;;;12.11;69.59
11643;BME280;5877;50.930;6.918;2023-03-23T03:57:38;99846.34;;;12.06;70.35
11643;BME280;5877;50.930;6.918;2023-03-23T04:02:29;99804.91;;;11.79;69.80
11643;BME280;5877;50.930;6.918;2023-03-23T04:07:20;99748.72;;;11.52;70.31
11643;BME280;5877;50.930;6.918;2023-03-23T04:12:13;99819.09;;;11.95;70.21
11643;BME280;5877;50.930;6.918;2023-03-23T04:17:27;99695.13;;;11.19;69.98
11643;BME280;5877;50.930;6.918;2023-03-23T04:22:18;99791.75;;;11.79;70.42
11643;BME280;5877;50.930;6.918;2023-03-23T04:27:09;99713.94;;;10.99;70.82
11643;BME280;5877;50.930;6.918;2023-03-23T04:32:00;99803.59;;;11.65;70.93
11643;BME280;5877;50.930;6.918;2023-03-23T04:37:04;99479.81;;;9.62;70.53
11643;BME280;5877;50.930;6.918;2023-03-23T04:41:56;99801.19;;;11.63;70.30
11643;BME280;5877;50.930;6.918;2023-03-23T04:47:11;99816.28;;;11.85;70.85
11643;BME280;5877;50.930;6.918;2023-03-23T04:52:11;99815.19;;;11.81;70.73
11643;BME280;5877;50.930;6.918;2023-03-23T04:57:06;99730.06;;;11.20;69.97
11643;BME280;5877;50.930;6.918;2023-03-23T05:02:00;99776.59;;;11.53;70.31
11643;BME280;5877;50.930;6.918;2023-03-23T05:06:52;99846.25;;;12.00;70.51
11643;BME280;5877;50.930;6.918;2023-03-23T05:11:48;99337.97;;;8.85;70.09
11643;BME280;5877;50.930;6.918;2023-03-23T05:16:39;99840.38;;;11.93;70.65
11643;BME280;5877;50.930;6.918;2023-03-23T05:21:31;99618.06;;;10.35;70.40
11643;BME280;5877;50.930;6.918;2023-03-23T05:26:22;99626.38;;;10.60;70.34
11643;BME280;5877;50.930;6.918;2023-03-23T05:31:23;99776.03;;;11.51;70.53
11643;BME280;5877;50.930;6.918;2023-03-23T05:36:15;99737.53;;;11.28;70.08
11643;BME280;5877;50.930;6.918;2023-03-23T05:41:35;99713.72;;;11.01;70.16
11643;BME280;5877;50.930;6.918;2023-03-23T05:46:26;99863.16;;;12.05;69.86
11643;BME280;5877;50.930;6.918;2023-03-23T05:51:21;99877.50;;;12.14;69.42
11643;BME280;5877;50.930;6.918;2023-03-23T05:56:13;99609.41;;;10.51;68.68
11643;BME280;5877;50.930;6.918;2023-03-23T06:01:25;99555.47;;;9.98;67.85
11643;BME280;5877;50.930;6.918;2023-03-23T06:06:16;99820.56;;;11.74;68.34
11643;BME280;5877;50.930;6.918;2023-03-23T06:11:17;99781.28;;;11.51;68.05
11643;BME280;5877;50.930;6.918;2023-03-23T06:16:22;99841.06;;;11.89;66.33
11643;BME280;5877;50.930;6.918;2023-03-23T06:21:20;99752.22;;;11.57;64.33
11643;BME280;5877;50.930;6.918;2023-03-23T06:26:19;99693.75;;;11.33;63.33
11643;BME280;5877;50.930;6.918;2023-03-23T06:31:16;99725.13;;;11.74;62.26
11643;BME280;5877;50.930;6.918;2023-03-23T06:36:11;99851.91;;;12.64;62.20
11643;BME280;5877;50.930;6.918;2023-03-23T06:41:14;99906.09;;;12.99;62.53
11643;BME280;5877;50.930;6.918;2023-03-23T06:46:06;99811.25;;;12.55;61.89
11643;BME280;5877;50.930;6.918;2023-03-23T06:50:57;99868.88;;;13.17;61.19
11643;BME280;5877;50.930;6.918;2023-03-23T06:55:50;99875.88;;;13.28;60.87
11643;BME280;5877;50.930;6.918;2023-03-23T07:00:42;99875.31;;;13.26;60.40
11643;BME280;5877;50.930;6.918;2023-03-23T07:05:36;99813.72;;;12.84;60.74
11643;BME280;5877;50.930;6.918;2023-03-23T07:10:28;99850.16;;;12.92;60.88
11643;BME280;5877;50.930;6.918;2023-03-23T07:15:20;99854.19;;;12.99;61.06
11643;BME280;5877;50.930;6.918;2023-03-23T07:20:14;99660.44;;;11.89;60.23
11643;BME280;5877;50.930;6.918;2023-03-23T07:25:06;99888.00;;;13.29;60.35
11643;BME280;5877;50.930;6.918;2023-03-23T07:30:18;99859.75;;;13.25;59.82
11643;BME280;5877;50.930;6.918;2023-03-23T07:35:09;99805.94;;;13.21;59.22
11643;BME280;5877;50.930;6.918;2023-03-23T07:40:18;99848.19;;;13.53;58.73
11643;BME280;5877;50.930;6.918;2023-03-23T07:45:13;99857.19;;;13.57;57.86
11643;BME280;5877;50.930;6.918;2023-03-23T07:50:05;99683.91;;;12.61;58.09
11643;BME280;5877;50.930;6.918;2023-03-23T07:55:02;99906.34;;;14.32;57.17
11643;BME280;5877;50.930;6.918;2023-03-23T08:00:16;99925.06;;;14.63;56.25
11643;BME280;5877;50.930;6.918;2023-03-23T08:05:12;99877.41;;;14.42;55.73
11643;BME280;5877;50.930;6.918;2023-03-23T08:10:07;99910.50;;;14.55;55.50
11643;BME280;5877;50.930;6.918;2023-03-23T08:15:21;99922.06;;;14.91;54.82
11643;BME280;5877;50.930;6.918;2023-03-23T08:20:30;99888.97;;;14.78;54.07
11643;BME280;5877;50.930;6.918;2023-03-23T08:25:24;99777.44;;;14.14;53.95
11643;BME280;5877;50.930;6.918;2023-03-23T08:30:30;99882.81;;;14.63;54.02
11643;BME280;5877;50.930;6.918;2023-03-23T08:35:37;99930.53;;;14.93;53.50
11643;BME280;5877;50.930;6.918;2023-03-23T08:40:59;99814.09;;;14.52;52.64
11643;BME280;5877;50.930;6.918;2023-03-23T08:46:12;99864.16;;;14.79;52.40
11643;BME280;5877;50.930;6.918;2023-03-23T08:51:41;99716.34;;;13.90;51.49
11643;BME280;5877;50.930;6.918;2023-03-23T08:56:41;99841.06;;;14.59;51.71
11643;BME280;5877;50.930;6.918;2023-03-23T09:01:52;99962.94;;;15.25;52.18
11643;BME280;5877;50.930;6.918;2023-03-23T09:06:52;99913.66;;;14.99;52.35
11643;BME280;5877;50.930;6.918;2023-03-23T09:11:43;99835.28;;;14.63;51.30
11643;BME280;5877;50.930;6.918;2023-03-23T09:16:46;99815.28;;;14.87;50.55
11643;BME280;5877;50.930;6.918;2023-03-23T09:21:43;99765.56;;;14.69;49.77
11643;BME280;5877;50.930;6.918;2023-03-23T09:26:35;99901.72;;;16.05;49.33
11643;BME280;5877;50.930;6.918;2023-03-23T09:31:26;99950.69;;;16.58;48.11
11643;BME280;5877;50.930;6.918;2023-03-23T09:36:18;99482.78;;;13.57;47.91
11643;BME280;5877;50.930;6.918;2023-03-23T09:46:55;99976.16;;;16.74;46.90
11643;BME280;5877;50.930;6.918;2023-03-23T09:52:15;99952.03;;;16.55;46.06
11643;BME280;5877;50.930;6.918;2023-03-23T10:02:46;99981.19;;;16.35;46.71
11643;BME280;5877;50.930;6.918;2023-03-23T10:07:39;99976.91;;;16.95;46.21
11643;BME280;5877;50.930;6.918;2023-03-23T10:12:42;99973.91;;;17.22;45.90
11643;BME280;5877;50.930;6.918;2023-03-23T10:17:38;99902.47;;;17.41;45.73
11643;BME280;5877;50.930;6.918;2023-03-23T10:22:33;99922.56;;;17.52;45.87
11643;BME280;5877;50.930;6.918;2023-03-23T10:27:32;99989.25;;;17.35;47.50
11643;BME280;5877;50.930;6.918;2023-03-23T10:32:43;99872.06;;;15.67;50.11
11643;BME280;5877;50.930;6.918;2023-03-23T10:37:39;99653.84;;;13.95;51.77
11643;BME280;5877;50.930;6.918;2023-03-23T10:42:35;99988.78;;;15.81;53.61
11643;BME280;5877;50.930;6.918;2023-03-23T10:47:26;99778.88;;;14.37;53.90
11643;BME280;5877;50.930;6.918;2023-03-23T10:57:30;99996.69;;;15.76;54.29
11643;BME280;5877;50.930;6.918;2023-03-23T11:02:23;99945.94;;;16.04;52.87
11643;BME280;5877;50.930;6.918;2023-03-23T11:07:20;99808.22;;;15.08;53.05
11643;BME280;5877;50.930;6.918;2023-03-23T11:12:19;99909.66;;;16.00;52.20
11643;BME280;5877;50.930;6.918;2023-03-23T11:17:24;99944.63;;;16.27;52.07
11643;BME280;5877;50.930;6.918;2023-03-23T11:27:15;99700.56;;;14.63;52.25
11643;BME280;5877;50.930;6.918;2023-03-23T11:32:10;99801.16;;;15.44;52.48
11643;BME280;5877;50.930;6.918;2023-03-23T11:37:09;99907.81;;;15.95;52.69
11643;BME280;5877;50.930;6.918;2023-03-23T11:42:11;99888.50;;;15.59;53.82
11643;BME280;5877;50.930;6.918;2023-03-23T11:52:19;99913.16;;;15.07;56.11
11643;BME280;5877;50.930;6.918;2023-03-23T11:57:12;99634.63;;;12.84;59.09
11643;BME280;5877;50.930;6.918;2023-03-23T12:07:17;99984.34;;;16.47;54.11
11643;BME280;5877;50.930;6.918;2023-03-23T12:12:33;99814.69;;;15.57;52.89
11643;BME280;5877;50.930;6.918;2023-03-23T12:23:11;99969.44;;;17.07;51.67
11643;BME280;5877;50.930;6.918;2023-03-23T12:38:23;99914.44;;;17.82;47.21
11643;BME280;5877;50.930;6.918;2023-03-23T12:43:28;99796.34;;;16.27;49.26
11643;BME280;5877;50.930;6.918;2023-03-23T12:48:29;99863.06;;;16.29;50.12
11643;BME280;5877;50.930;6.918;2023-03-23T12:53:32;99804.91;;;15.58;50.72
11643;BME280;5877;50.930;6.918;2023-03-23T12:58:28;99838.69;;;16.32;50.15
11643;BME280;5877;50.930;6.918;2023-03-23T13:03:33;99978.50;;;17.71;49.08
11643;BME280;5877;50.930;6.918;2023-03-23T13:08:34;99955.53;;;17.90;48.26
11643;BME280;5877;50.930;6.918;2023-03-23T13:13:41;99893.28;;;17.18;47.59
11643;BME280;5877;50.930;6.918;2023-03-23T13:18:52;99975.09;;;17.55;48.75
11643;BME280;5877;50.930;6.918;2023-03-23T13:23:50;99710.13;;;15.80;49.21
11643;BME280;5877;50.930;6.918;2023-03-23T13:28:51;99977.53;;;17.46;48.74
11643;BME280;5877;50.930;6.918;2023-03-23T13:33:50;99983.63;;;17.47;49.38
11643;BME280;5877;50.930;6.918;2023-03-23T13:38:49;99986.13;;;17.18;52.99
11643;BME280;5877;50.930;6.918;2023-03-23T13:43:41;100001.06;;;16.73;52.48
11643;BME280;5877;50.930;6.918;2023-03-23T13:48:46;99948.25;;;17.02;51.64
11643;BME280;5877;50.930;6.918;2023-03-23T13:53:46;99876.94;;;17.50;49.23
11643;BME280;5877;50.930;6.918;2023-03-23T13:59:04;99889.41;;;17.94;46.62
11643;BME280;5877;50.930;6.918;2023-03-23T14:03:55;99850.78;;;17.77;46.58
11643;BME280;5877;50.930;6.918;2023-03-23T14:08:51;99971.38;;;18.68;46.35
11643;BME280;5877;50.930;6.918;2023-03-23T14:18:39;99915.91;;;18.57;45.85
11643;BME280;5877;50.930;6.918;2023-03-23T14:23:32;99984.31;;;18.17;46.26
11643;BME280;5877;50.930;6.918;2023-03-23T14:28:23;99719.59;;;16.12;47.40
11643;BME280;5877;50.930;6.918;2023-03-23T14:33:14;99889.44;;;16.90;47.81
11643;BME280;5877;50.930;6.918;2023-03-23T14:38:21;99964.72;;;16.89;49.01
11643;BME280;5877;50.930;6.918;2023-03-23T14:43:18;99885.31;;;16.03;50.23
11643;BME280;5877;50.930;6.918;2023-03-23T14:48:13;99979.59;;;16.29;52.09
11643;BME280;5877;50.930;6.918;2023-03-23T14:53:29;99991.47;;;15.96;54.58
11643;BME280;5877;50.930;6.918;2023-03-23T14:58:22;99991.19;;;15.93;54.81
11643;BME280;5877;50.930;6.918;2023-03-23T15:03:15;99818.84;;;15.33;52.96
11643;BME280;5877;50.930;6.918;2023-03-23T15:08:22;99723.41;;;15.40;51.20
11643;BME280;5877;50.930;6.918;2023-03-23T15:13:16;99842.88;;;16.59;49.66
11643;BME280;5877;50.930;6.918;2023-03-23T15:18:40;99884.31;;;17.09;49.24
11643;BME280;5877;50.930;6.918;2023-03-23T15:23:30;99940.53;;;17.70;48.29
11643;BME280;5877;50.930;6.918;2023-03-23T15:28:28;99910.94;;;17.43;47.43
11643;BME280;5877;50.930;6.918;2023-03-23T15:33:19;99827.44;;;16.81;47.74
11643;BME280;5877;50.930;6.918;2023-03-23T15:38:31;99863.69;;;17.01;47.31
11643;BME280;5877;50.930;6.918;2023-03-23T15:43:26;99645.03;;;15.84;46.75
11643;BME280;5877;50.930;6.918;2023-03-23T15:48:20;99894.56;;;17.31;47.44
11643;BME280;5877;50.930;6.918;2023-03-23T15:58:21;99824.66;;;16.27;48.73
11643;BME280;5877;50.930;6.918;2023-03-23T16:03:23;99801.63;;;16.32;48.59
11643;BME280;5877;50.930;6.918;2023-03-23T16:08:18;99424.03;;;13.82;48.51
11643;BME280;5877;50.930;6.918;2023-03-23T16:13:10;99653.06;;;14.78;48.97
11643;BME280;5877;50.930;6.918;2023-03-23T16:18:02;99707.25;;;15.06;49.43
11643;BME280;5877;50.930;6.918;2023-03-23T16:22:54;99773.66;;;15.75;49.15
11643;BME280;5877;50.930;6.918;2023-03-23T16:27:46;99762.00;;;15.71;48.63
11643;BME280;5877;50.930;6.918;2023-03-23T16:32:43;99777.34;;;15.74;48.61
11643;BME280;5877;50.930;6.918;2023-03-23T16:37:36;99912.59;;;16.13;49.34
11643;BME280;5877;50.930;6.918;2023-03-23T16:42:28;99874.19;;;15.80;50.14
11643;BME280;5877;50.930;6.918;2023-03-23T16:47:20;99791.63;;;15.27;50.02
11643;BME280;5877;50.930;6.918;2023-03-23T16:52:16;99887.94;;;15.72;50.28
11643;BME280;5877;50.930;6.918;2023-03-23T16:57:08;99847.69;;;15.40;49.87
11643;BME280;5877;50.930;6.918;2023-03-23T17:02:00;99861.91;;;15.18;50.31
11643;BME280;5877;50.930;6.918;2023-03-23T17:06:54;99720.97;;;14.20;50.72
11643;BME280;5877;50.930;6.918;2023-03-23T17:11:46;99756.84;;;14.16;51.14
11643;BME280;5877;50.930;6.918;2023-03-23T17:16:38;99922.84;;;14.91;51.20
11643;BME280;5877;50.930;6.918;2023-03-23T17:21:30;99843.97;;;14.21;52.56
11643;BME280;5877;50.930;6.918;2023-03-23T17:26:22;99950.56;;;14.84;52.77
11643;BME280;5877;50.930;6.918;2023-03-23T17:31:14;99956.34;;;14.81;52.97
11643;BME280;5877;50.930;6.918;2023-03-23T17:36:07;99786.53;;;13.59;53.49
11643;BME280;5877;50.930;6.918;2023-03-23T17:41:00;99921.13;;;14.33;53.51
11643;BME280;5877;50.930;6.918;2023-03-23T17:45:52;99826.53;;;13.51;54.26
11643;BME280;5877;50.930;6.918;2023-03-23T17:50:48;99919.84;;;14.04;54.34
11643;BME280;5877;50.930;6.918;2023-03-23T17:55:40;99823.22;;;13.33;54.62
11643;BME280;5877;50.930;6.918;2023-03-23T18:00:34;99961.50;;;14.28;54.68
11643;BME280;5877;50.930;6.918;2023-03-23T18:05:26;99786.50;;;13.27;54.27
11643;BME280;5877;50.930;6.918;2023-03-23T18:10:18;99786.63;;;13.15;54.36
11643;BME280;5877;50.930;6.918;2023-03-23T18:15:11;99954.00;;;14.15;55.08
11643;BME280;5877;50.930;6.918;2023-03-23T18:20:04;99810.63;;;13.41;54.54
11643;BME280;5877;50.930;6.918;2023-03-23T18:24:56;99888.81;;;13.84;55.00
11643;BME280;5877;50.930;6.918;2023-03-23T18:29:48;99525.34;;;11.52;55.23
11643;BME280;5877;50.930;6.918;2023-03-23T18:34:40;99559.66;;;11.84;54.98
11643;BME280;5877;50.930;6.918;2023-03-23T18:39:33;99899.28;;;14.06;55.01
11643;BME280;5877;50.930;6.918;2023-03-23T18:44:25;99805.69;;;13.49;55.20
11643;BME280;5877;50.930;6.918;2023-03-23T18:49:17;99665.78;;;12.65;55.54
11643;BME280;5877;50.930;6.918;2023-03-23T18:54:09;99543.16;;;11.88;55.71
11643;BME280;5877;50.930;6.918;2023-03-23T18:59:01;99674.97;;;12.62;56.18
11643;BME280;5877;50.930;6.918;2023-03-23T19:03:53;99673.50;;;12.72;56.75
11643;BME280;5877;50.930;6.918;2023-03-23T19:08:46;99640.50;;;12.37;57.25
11643;BME280;5877;50.930;6.918;2023-03-23T19:13:38;99615.44;;;12.08;58.08
11643;BME280;5877;50.930;6.918;2023-03-23T19:18:44;99882.66;;;13.73;58.80
11643;BME280;5877;50.930;6.918;2023-03-23T19:23:36;99765.44;;;13.00;59.38
11643;BME280;5877;50.930;6.918;2023-03-23T19:28:28;99858.53;;;13.59;59.24
11643;BME280;5877;50.930;6.918;2023-03-23T19:33:23;99866.28;;;13.71;59.36
11643;BME280;5877;50.930;6.918;2023-03-23T19:38:15;99607.84;;;12.11;59.15
11643;BME280;5877;50.930;6.918;2023-03-23T19:43:14;99697.84;;;12.84;59.02
11643;BME280;5877;50.930;6.918;2023-03-23T19:48:18;99677.66;;;12.67;58.75
11643;BME280;5877;50.930;6.918;2023-03-23T19:53:17;99784.75;;;13.38;59.20
11643;BME280;5877;50.930;6.918;2023-03-23T19:58:13;99879.69;;;13.96;59.15
11643;BME280;5877;50.930;6.918;2023-03-23T20:03:07;99728.56;;;13.05;59.21
11643;BME280;5877;50.930;6.918;2023-03-23T20:08:03;99687.75;;;12.76;59.18
11643;BME280;5877;50.930;6.918;2023-03-23T20:12:55;99870.44;;;13.94;59.17
11643;BME280;5877;50.930;6.918;2023-03-23T20:17:48;99784.56;;;13.44;59.25
11643;BME280;5877;50.930;6.918;2023-03-23T20:22:44;99864.66;;;13.97;59.28
11643;BME280;5877;50.930;6.918;2023-03-23T20:27:44;99663.09;;;12.87;59.19
11643;BME280;5877;50.930;6.918;2023-03-23T20:32:48;99792.34;;;13.61;59.63
11643;BME280;5877;50.930;6.918;2023-03-23T20:37:52;99830.53;;;13.85;59.55
11643;BME280;5877;50.930;6.918;2023-03-23T20:42:44;99824.91;;;13.77;59.92
11643;BME280;5877;50.930;6.918;2023-03-23T20:47:41;99620.28;;;12.43;59.93
11643;BME280;5877;50.930;6.918;2023-03-23T20:52:33;99819.09;;;13.75;60.28
11643;BME280;5877;50.930;6.918;2023-03-23T20:57:26;99718.13;;;13.15;59.96
11643;BME280;5877;50.930;6.918;2023-03-23T21:02:19;99794.78;;;13.68;60.49
11643;BME280;5877;50.930;6.918;2023-03-23T21:07:13;99799.50;;;13.65;60.67
11643;BME280;5877;50.930;6.918;2023-03-23T21:12:06;99606.13;;;12.49;60.36
11643;BME280;5877;50.930;6.918;2023-03-23T21:16:59;99505.44;;;11.78;60.65
11643;BME280;5877;50.930;6.918;2023-03-23T21:21:52;99643.44;;;12.67;61.04
11643;BME280;5877;50.930;6.918;2023-03-23T21:26:47;99626.50;;;12.58;61.42
11643;BME280;5877;50.930;6.918;2023-03-23T21:31:40;99630.88;;;12.75;61.95
11643;BME280;5877;50.930;6.918;2023-03-23T21:36:33;99768.72;;;13.76;61.80
11643;BME280;5877;50.930;6.918;2023-03-23T21:41:25;99785.91;;;13.79;61.77
11643;BME280;5877;50.930;6.918;2023-03-23T21:46:17;99760.28;;;13.74;61.21
11643;BME280;5877;50.930;6.918;2023-03-23T21:51:13;99430.84;;;11.62;61.78
11643;BME280;5877;50.930;6.918;2023-03-23T21:56:07;99585.81;;;12.71;62.96
11643;BME280;5877;50.930;6.918;2023-03-23T22:01:00;99673.84;;;13.12;62.16
11643;BME280;5877;50.930;6.918;2023-03-23T22:05:53;99497.13;;;12.13;62.36
11643;BME280;5877;50.930;6.918;2023-03-23T22:10:45;99573.34;;;12.61;62.85
11643;BME280;5877;50.930;6.918;2023-03-23T22:15:52;99599.59;;;12.83;62.71
11643;BME280;5877;50.930;6.918;2023-03-23T22:20:44;99546.34;;;12.44;63.92
11643;BME280;5877;50.930;6.918;2023-03-23T22:25:37;99623.06;;;12.85;64.27
11643;BME280;5877;50.930;6.918;2023-03-23T22:30:30;99676.53;;;13.17;65.43
11643;BME280;5877;50.930;6.918;2023-03-23T22:35:24;99560.75;;;12.37;65.98
11643;BME280;5877;50.930;6.918;2023-03-23T22:40:17;99645.50;;;12.92;65.57
11643;BME280;5877;50.930;6.918;2023-03-23T22:45:09;99608.72;;;12.71;66.47
11643;BME280;5877;50.930;6.918;2023-03-23T22:50:01;99634.72;;;12.94;66.65
11643;BME280;5877;50.930;6.918;2023-03-23T22:54:53;99607.47;;;12.78;66.47
11643;BME280;5877;50.930;6.918;2023-03-23T22:59:48;99714.47;;;13.48;66.61
11643;BME280;5877;50.930;6.918;2023-03-23T23:04:40;99401.53;;;11.48;66.60
11643;BME280;5877;50.930;6.918;2023-03-23T23:09:33;99695.75;;;13.50;66.82
11643;BME280;5877;50.930;6.918;2023-03-23T23:14:25;99189.66;;;10.24;66.12
11643;BME280;5877;50.930;6.918;2023-03-23T23:19:16;99560.47;;;12.65;66.76
11643;BME280;5877;50.930;6.918;2023-03-23T23:24:08;99579.34;;;12.84;67.10
11643;BME280;5877;50.930;6.918;2023-03-23T23:29:00;99647.38;;;13.29;67.00
11643;BME280;5877;50.930;6.918;2023-03-23T23:33:59;99571.47;;;12.89;67.14
11643;BME280;5877;50.930;6.918;2023-03-23T23:38:51;99611.72;;;13.16;66.93
11643;BME280;5877;50.930;6.918;2023-03-23T23:43:43;99531.81;;;12.68;67.49
11643;BME280;5877;50.930;6.918;2023-03-23T23:48:35;99513.28;;;12.53;67.57
11643;BME280;5877;50.930;6.918;2023-03-23T23:53:27;99571.56;;;13.04;67.56
11643;BME280;5877;50.930;6.918;2023-03-23T23:58:19;99483.78;;;12.51;67.69
